Thunder radar more information blitzortung!


Radar de pluja more information rain snow radar


Visita la nostra xarxa de llocs de meteo:

Template documentation
and downloads

And another site



No particular awareness of the weather is required.    There are no Weather-warnings

Pagina Historial Weather Underground text

Diari Resum Octubre 10, 2017 Unitats:  Imperial    Mètric   Tant
« Previous Dia
SegĂźent Dia »
Diari Setmana Mensual Anual Personalitzada
  Maxima: Minima: Media:
Temperatura: TemperatureC °F 13.7 °F 18.7 °F
Punt de rosada: DewpointC °F 12.1 °F 14.1 °F
Humitat: Humidity % 49 % 76 %
Wind Speed: WindSpeedKMH mph 0.0 mph 3.1 mph
RĂ fegues de vent: WindSpeedGustKMH mph - -
Vent:- - SSE
Pression baro: PressurehPa in 1018.8 in -
Precipitacions: 0.0 in    
Historical Graphs
 
 
Dades de taula per Octubre 10, 2017
Temps Temperatura Punt de rosada Pression baro Vent Wind Speed RĂ fegues de vent Humitat Rainfall Rate (Hourly)
TemperatureC °F DewpointC °F PressurehPa in Calm     Humidity % HourlyPrecipMM in
00:04 17.7 °F 14.0 °F 1019.9 in Calm     79 % 0.0 in
00:09 17.7 °F 14.2 °F 1019.9 in SSE 1.9 mph   80 % 0.0 in
00:14 17.6 °F 14.1 °F 1019.9 in Calm     80 % 0.0 in
00:19 17.6 °F 14.1 °F 1019.9 in ENE 1.9 mph   80 % 0.0 in
00:24 17.5 °F 14.0 °F 1019.9 in Calm     80 % 0.0 in
00:29 17.3 °F 13.8 °F 1019.9 in Calm     80 % 0.0 in
00:34 17.3 °F 13.8 °F 1019.9 in ENE 2.3 mph 2.3 mph 80 % 0.0 in
00:39 17.1 °F 13.6 °F 1019.9 in NE 1.9 mph   80 % 0.0 in
00:44 17.0 °F 13.7 °F 1019.9 in Calm     81 % 0.0 in
00:49 17.0 °F 13.7 °F 1019.9 in Calm     81 % 0.0 in
00:54 17.0 °F 13.7 °F 1019.9 in Calm     81 % 0.0 in
00:59 16.9 °F 14.0 °F 1019.9 in Calm     83 % 0.0 in
01:04 16.9 °F 14.0 °F 1019.9 in Calm     83 % 0.0 in
01:09 16.9 °F 14.0 °F 1019.9 in NE 1.9 mph 1.9 mph 83 % 0.0 in
01:14 16.9 °F 14.0 °F 1019.9 in Calm     83 % 0.0 in
01:19 16.8 °F 13.9 °F 1019.9 in Calm     83 % 0.0 in
01:24 16.7 °F 13.8 °F 1019.9 in SW 1.4 mph   83 % 0.0 in
01:29 16.3 °F 13.4 °F 1019.9 in SW 1.9 mph 1.9 mph 83 % 0.0 in
01:39 16.5 °F 13.8 °F 1019.9 in SW 3.7 mph 3.7 mph 84 % 0.0 in
01:44 16.3 °F 13.6 °F 1019.9 in WSW 1.9 mph   84 % 0.0 in
01:49 16.4 °F 13.7 °F 1019.9 in Calm     84 % 0.0 in
01:54 16.4 °F 13.9 °F 1019.9 in Calm     85 % 0.0 in
01:59 16.5 °F 13.9 °F 1019.9 in Calm     85 % 0.0 in
02:04 16.6 °F 14.1 °F 1019.9 in Calm     85 % 0.0 in
02:09 16.6 °F 14.1 °F 1019.9 in WNW 2.6 mph 2.6 mph 85 % 0.0 in
02:14 16.6 °F 14.1 °F 1019.9 in Calm     85 % 0.0 in
02:19 16.6 °F 14.1 °F 1019.9 in NNW 3.7 mph 3.7 mph 85 % 0.0 in
02:24 16.6 °F 14.1 °F 1019.9 in NNE 1.9 mph   85 % 0.0 in
02:29 16.5 °F 13.9 °F 1019.9 in Calm     85 % 0.0 in
02:34 16.6 °F 14.2 °F 1019.9 in Calm     86 % 0.0 in
02:39 16.6 °F 14.2 °F 1019.9 in NNE 1.9 mph 1.9 mph 86 % 0.0 in
02:44 16.6 °F 14.2 °F 1018.8 in Calm     86 % 0.0 in
02:49 16.5 °F 14.2 °F 1018.8 in ENE 3.2 mph   86 % 0.0 in
02:54 16.4 °F 14.1 °F 1018.8 in SSW 2.6 mph 2.6 mph 86 % 0.0 in
02:59 16.2 °F 13.7 °F 1019.9 in Calm     85 % 0.0 in
03:04 16.2 °F 13.7 °F 1019.9 in SSW 1.9 mph   85 % 0.0 in
03:09 16.1 °F 13.8 °F 1019.9 in South 1.9 mph   86 % 0.0 in
03:19 16.0 °F 13.7 °F 1019.9 in Calm     86 % 0.0 in
03:24 15.9 °F 13.6 °F 1019.9 in Calm     86 % 0.0 in
03:25 15.9 °F 13.6 °F 1019.9 in Calm     86 % 0.0 in
03:30 15.8 °F 13.4 °F 1019.9 in Calm     86 % 0.0 in
03:35 15.7 °F 13.4 °F 1019.9 in Calm     86 % 0.0 in
03:40 15.7 °F 13.4 °F 1019.9 in SW 1.9 mph 1.9 mph 86 % 0.0 in
03:45 15.7 °F 13.4 °F 1019.9 in Calm     86 % 0.0 in
03:46 15.7 °F 13.6 °F 1019.9 in Calm     87 % 0.0 in
03:51 15.6 °F 13.4 °F 1019.9 in Calm     87 % 0.0 in
03:56 15.6 °F 13.4 °F 1019.9 in Calm     87 % 0.0 in
04:01 15.7 °F 13.4 °F 1019.9 in WNW 1.9 mph   86 % 0.0 in
04:06 15.6 °F 13.4 °F 1019.9 in Calm     87 % 0.0 in
04:11 15.6 °F 13.4 °F 1019.9 in Calm     87 % 0.0 in
04:16 15.5 °F 13.3 °F 1019.9 in Calm     87 % 0.0 in
04:22 15.3 °F 13.2 °F 1019.9 in Calm     87 % 0.0 in
04:27 15.2 °F 13.1 °F 1019.9 in Calm     87 % 0.0 in
04:32 15.3 °F 13.2 °F 1019.9 in Calm     87 % 0.0 in
04:37 15.3 °F 13.3 °F 1019.9 in Calm     88 % 0.0 in
04:42 15.3 °F 13.3 °F 1019.9 in Calm     88 % 0.0 in
04:47 15.3 °F 13.3 °F 1019.9 in Calm     88 % 0.0 in
04:52 15.3 °F 13.3 °F 1019.9 in Calm     88 % 0.0 in
04:57 15.3 °F 13.3 °F 1019.9 in Calm     88 % 0.0 in
05:03 15.3 °F 13.5 °F 1019.9 in Calm     89 % 0.0 in
05:08 15.4 °F 13.6 °F 1019.9 in WNW 1.9 mph   89 % 0.0 in
05:14 15.3 °F 13.5 °F 1019.9 in Calm     89 % 0.0 in
05:20 15.1 °F 13.1 °F 1019.9 in Calm     88 % 0.0 in
05:25 15.1 °F 13.1 °F 1019.9 in Calm     88 % 0.0 in
05:30 15.2 °F 13.2 °F 1019.9 in Calm     88 % 0.0 in
05:35 15.1 °F 13.1 °F 1019.9 in Calm     88 % 0.0 in
05:36 15.1 °F 13.1 °F 1019.9 in Calm     88 % 0.0 in
05:41 15.0 °F 13.2 °F 1019.9 in Calm     89 % 0.0 in
05:46 15.0 °F 13.2 °F 1019.9 in SW 2.3 mph   89 % 0.0 in
05:51 15.1 °F 13.3 °F 1019.9 in Calm     89 % 0.0 in
05:56 15.1 °F 13.3 °F 1019.9 in Calm     89 % 0.0 in
06:01 15.0 °F 13.2 °F 1018.8 in Calm     89 % 0.0 in
06:06 14.9 °F 13.1 °F 1018.8 in Calm     89 % 0.0 in
06:11 14.8 °F 13.0 °F 1018.8 in Calm     89 % 0.0 in
06:16 14.8 °F 13.0 °F 1019.9 in Calm     89 % 0.0 in
06:21 14.9 °F 13.1 °F 1019.9 in Calm     89 % 0.0 in
06:26 14.8 °F 13.2 °F 1019.9 in Calm     90 % 0.0 in
06:31 14.8 °F 13.2 °F 1019.9 in Calm     90 % 0.0 in
06:36 14.8 °F 13.2 °F 1019.9 in Calm     90 % 0.0 in
06:41 14.7 °F 13.1 °F 1019.9 in Calm     90 % 0.0 in
06:46 14.7 °F 13.1 °F 1018.8 in NW 1.9 mph   90 % 0.0 in
06:51 14.5 °F 12.9 °F 1018.8 in Calm     90 % 0.0 in
06:56 14.4 °F 12.6 °F 1018.8 in Calm     89 % 0.0 in
07:01 14.3 °F 12.5 °F 1019.9 in Calm     89 % 0.0 in
07:06 14.2 °F 12.4 °F 1019.9 in Calm     89 % 0.0 in
07:11 14.1 °F 12.3 °F 1019.9 in Calm     89 % 0.0 in
07:16 14.0 °F 12.2 °F 1019.9 in Calm     89 % 0.0 in
07:21 14.1 °F 12.5 °F 1019.9 in Calm     90 % 0.0 in
07:26 14.0 °F 12.4 °F 1019.9 in Calm     90 % 0.0 in
07:31 14.0 °F 12.4 °F 1018.8 in Calm     90 % 0.0 in
07:36 13.9 °F 12.3 °F 1018.8 in Calm     90 % 0.0 in
07:41 13.9 °F 12.3 °F 1018.8 in Calm     90 % 0.0 in
07:46 13.8 °F 12.2 °F 1019.9 in Calm     90 % 0.0 in
07:51 13.8 °F 12.2 °F 1019.9 in Calm     90 % 0.0 in
07:56 13.7 °F 12.1 °F 1019.9 in Calm     90 % 0.0 in
08:01 13.7 °F 12.1 °F 1019.9 in Calm     90 % 0.0 in
08:11 13.8 °F 12.2 °F 1019.9 in Calm     90 % 0.0 in
08:16 13.7 °F 12.1 °F 1019.9 in Calm     90 % 0.0 in
08:21 13.7 °F 12.1 °F 1019.9 in Calm     90 % 0.0 in
08:26 13.8 °F 12.2 °F 1019.9 in Calm     90 % 0.0 in
08:31 13.8 °F 12.3 °F 1019.9 in WNW 2.3 mph 2.3 mph 91 % 0.0 in
08:36 13.9 °F 12.3 °F 1019.9 in SW 3.7 mph 3.7 mph 90 % 0.0 in
08:41 13.9 °F 12.3 °F 1019.9 in SW 1.9 mph 1.9 mph 90 % 0.0 in
08:51 14.0 °F 12.4 °F 1019.9 in SW 3.7 mph 3.7 mph 90 % 0.0 in
08:56 14.1 °F 12.7 °F 1019.9 in West 3.7 mph 3.7 mph 91 % 0.0 in
09:02 14.3 °F 12.7 °F 1020.9 in WSW 3.7 mph 3.7 mph 90 % 0.0 in
09:07 14.5 °F 13.1 °F 1020.9 in WSW 1.9 mph 1.9 mph 91 % 0.0 in
09:12 14.6 °F 13.2 °F 1020.9 in WSW 3.7 mph 3.7 mph 91 % 0.0 in
09:17 14.9 °F 13.4 °F 1020.9 in WSW 4.2 mph 4.2 mph 91 % 0.0 in
09:22 15.2 °F 13.7 °F 1020.9 in SW 4.2 mph 4.2 mph 91 % 0.0 in
09:27 15.4 °F 13.9 °F 1020.9 in WSW 3.7 mph 3.7 mph 91 % 0.0 in
09:32 15.6 °F 14.1 °F 1021.9 in SW 3.7 mph 3.7 mph 91 % 0.0 in
09:37 15.8 °F 14.3 °F 1021.9 in SW 3.7 mph 3.7 mph 91 % 0.0 in
09:42 16.1 °F 14.6 °F 1021.9 in SW 1.9 mph   91 % 0.0 in
09:47 16.2 °F 14.6 °F 1021.9 in SSW 1.9 mph 1.9 mph 90 % 0.0 in
09:52 16.5 °F 14.8 °F 1021.9 in SSE 3.7 mph 3.7 mph 90 % 0.0 in
09:57 16.8 °F 15.2 °F 1021.9 in SSW 3.7 mph   90 % 0.0 in
09:58 16.8 °F 15.2 °F 1021.9 in Calm     90 % 0.0 in
10:03 17.3 °F 15.4 °F 1021.9 in WNW 1.9 mph 1.9 mph 89 % 0.0 in
10:08 17.3 °F 15.1 °F 1021.9 in WSW 3.7 mph 3.7 mph 87 % 0.0 in
10:18 18.2 °F 15.6 °F 1021.9 in SSW 1.9 mph   85 % 0.0 in
10:23 18.0 °F 15.3 °F 1021.9 in SW 3.7 mph 3.7 mph 84 % 0.0 in
10:28 18.3 °F 15.4 °F 1021.9 in NNE 1.9 mph   83 % 0.0 in
10:33 18.4 °F 15.4 °F 1021.9 in SSW 3.7 mph 3.7 mph 83 % 0.0 in
10:38 19.0 °F 15.7 °F 1021.9 in NE 3.9 mph 3.9 mph 81 % 0.0 in
10:43 19.2 °F 15.7 °F 1021.9 in Calm     80 % 0.0 in
10:48 19.4 °F 15.4 °F 1021.9 in NE 1.9 mph 1.9 mph 78 % 0.0 in
10:53 19.8 °F 15.4 °F 1021.9 in East 4.2 mph 4.2 mph 76 % 0.0 in
10:58 19.7 °F 15.6 °F 1021.9 in ENE 3.7 mph 3.7 mph 77 % 0.0 in
11:03 19.8 °F 15.4 °F 1021.9 in SE 3.7 mph 3.7 mph 76 % 0.0 in
11:08 20.3 °F 15.7 °F 1021.9 in NNE 6.9 mph 6.9 mph 75 % 0.0 in
11:13 19.9 °F 15.1 °F 1021.9 in ESE 3.7 mph 3.9 mph 74 % 0.0 in
11:18 20.3 °F 15.5 °F 1021.9 in NE 3.7 mph 3.7 mph 74 % 0.0 in
11:19 20.4 °F 15.6 °F 1021.9 in ESE 4.7 mph 4.7 mph 74 % 0.0 in
11:24 20.6 °F 15.4 °F 1021.9 in ESE 3.7 mph 4.2 mph 72 % 0.0 in
11:29 20.5 °F 15.5 °F 1021.9 in ENE 5.6 mph 5.6 mph 73 % 0.0 in
11:34 20.8 °F 15.8 °F 1021.9 in ENE 3.7 mph 3.7 mph 73 % 0.0 in
11:39 21.1 °F 15.6 °F 1021.9 in South 5.6 mph 5.6 mph 71 % 0.0 in
11:44 21.5 °F 16.0 °F 1021.9 in NNE 5.6 mph 5.6 mph 71 % 0.0 in
11:49 21.5 °F 15.6 °F 1021.9 in ESE 4.7 mph 4.7 mph 69 % 0.0 in
11:54 21.6 °F 15.7 °F 1021.9 in ESE 4.7 mph 4.7 mph 69 % 0.0 in
11:59 22.0 °F 15.3 °F 1020.9 in ESE 5.6 mph 5.6 mph 66 % 0.0 in
12:04 21.9 °F 15.7 °F 1020.9 in SSE 9.3 mph 9.3 mph 68 % 0.0 in
12:09 22.1 °F 15.4 °F 1020.9 in NE 5.6 mph 5.6 mph 66 % 0.0 in
12:14 22.1 °F 15.7 °F 1020.9 in East 5.6 mph 5.6 mph 67 % 0.0 in
12:19 21.9 °F 15.3 °F 1020.9 in ENE 7.4 mph 7.4 mph 66 % 0.0 in
12:24 22.2 °F 15.1 °F 1020.9 in SSE 7.4 mph 7.4 mph 64 % 0.0 in
12:29 22.3 °F 15.4 °F 1021.9 in ESE 9.0 mph 9.0 mph 65 % 0.0 in
12:34 22.1 °F 15.2 °F 1021.9 in NE 7.4 mph 7.4 mph 65 % 0.0 in
12:39 22.2 °F 15.3 °F 1021.9 in East 7.4 mph 7.4 mph 65 % 0.0 in
12:44 22.2 °F 15.3 °F 1020.9 in NE 5.6 mph 5.6 mph 65 % 0.0 in
12:49 22.4 °F 15.5 °F 1020.9 in NNW 7.4 mph 7.4 mph 65 % 0.0 in
12:54 22.3 °F 14.9 °F 1020.9 in ENE 5.6 mph 5.6 mph 63 % 0.0 in
13:04 23.2 °F 15.8 °F 1020.9 in WSW 3.9 mph 3.9 mph 63 % 0.0 in
13:09 23.7 °F 16.0 °F 1020.9 in SE 5.6 mph 5.6 mph 62 % 0.0 in
13:14 24.1 °F 15.3 °F 1020.9 in SSE 5.6 mph 5.8 mph 58 % 0.0 in
13:19 24.0 °F 15.5 °F 1020.9 in SSW 3.7 mph 3.7 mph 59 % 0.0 in
13:24 23.7 °F 15.2 °F 1020.9 in South 6.1 mph 6.1 mph 59 % 0.0 in
13:29 24.0 °F 14.9 °F 1020.9 in South 5.6 mph 5.6 mph 57 % 0.0 in
13:34 23.5 °F 14.5 °F 1020.9 in SE 11.1 mph 11.1 mph 57 % 0.0 in
13:39 24.2 °F 15.2 °F 1020.9 in ESE 3.7 mph 3.7 mph 57 % 0.0 in
13:44 24.8 °F 15.4 °F 1020.9 in East 5.6 mph 5.6 mph 56 % 0.0 in
13:49 24.3 °F 14.9 °F 1020.9 in ESE 7.4 mph 7.4 mph 56 % 0.0 in
13:54 24.1 °F 15.1 °F 1020.9 in NE 7.4 mph 7.4 mph 57 % 0.0 in
13:59 23.8 °F 15.1 °F 1019.9 in ESE 7.4 mph 7.4 mph 58 % 0.0 in
14:14 23.6 °F 14.6 °F 1019.9 in ENE 4.2 mph 4.2 mph 57 % 0.0 in
14:19 23.2 °F 14.2 °F 1019.9 in ENE 7.4 mph 7.4 mph 57 % 0.0 in
14:24 23.1 °F 14.1 °F 1019.9 in ENE 7.9 mph 7.9 mph 57 % 0.0 in
14:29 23.0 °F 14.0 °F 1019.9 in ESE 6.1 mph 6.1 mph 57 % 0.0 in
14:34 23.1 °F 14.1 °F 1019.9 in ESE 5.6 mph 5.6 mph 57 % 0.0 in
14:39 23.3 °F 14.3 °F 1019.9 in ESE 13.0 mph 13.0 mph 57 % 0.0 in
14:44 23.2 °F 13.9 °F 1019.9 in WNW 5.6 mph 5.6 mph 56 % 0.0 in
14:49 23.1 °F 13.8 °F 1019.9 in ESE 4.7 mph 4.7 mph 56 % 0.0 in
14:54 23.2 °F 13.9 °F 1019.9 in South 7.4 mph 7.4 mph 56 % 0.0 in
14:59 23.5 °F 14.2 °F 1019.9 in WSW 3.7 mph 3.7 mph 56 % 0.0 in
15:04 23.7 °F 14.1 °F 1019.9 in SSE 2.3 mph 2.6 mph 55 % 0.0 in
15:09 23.7 °F 14.4 °F 1019.9 in SW 3.7 mph 3.7 mph 56 % 0.0 in
15:14 23.9 °F 14.3 °F 1019.9 in ESE 7.4 mph 7.4 mph 55 % 0.0 in
15:19 24.3 °F 14.1 °F 1019.9 in ESE 9.3 mph 9.3 mph 53 % 0.0 in
15:24 24.7 °F 14.8 °F 1019.9 in SW 7.9 mph 7.9 mph 54 % 0.0 in
15:29 24.9 °F 14.7 °F 1019.9 in WSW 9.3 mph 9.3 mph 53 % 0.0 in
15:34 24.9 °F 14.4 °F 1019.9 in SE 7.4 mph 7.4 mph 52 % 0.0 in
15:39 24.8 °F 14.0 °F 1019.9 in ESE 7.4 mph 7.4 mph 51 % 0.0 in
15:44 25.4 °F 13.9 °F 1019.9 in SSW 3.7 mph 3.7 mph 49 % 0.0 in
15:49 25.2 °F 14.1 °F 1019.9 in West 9.5 mph 9.5 mph 50 % 0.0 in
15:54 25.0 °F 13.8 °F 1019.9 in NE 7.6 mph 7.6 mph 50 % 0.0 in
15:59 24.8 °F 14.3 °F 1019.9 in SSW 4.7 mph 4.7 mph 52 % 0.0 in
16:04 24.9 °F 14.1 °F 1019.9 in SSE 5.6 mph 5.6 mph 51 % 0.0 in
16:09 25.0 °F 13.8 °F 1019.9 in SSW 3.2 mph 3.2 mph 50 % 0.0 in
16:19 24.9 °F 14.1 °F 1019.9 in SW 3.7 mph 3.7 mph 51 % 0.0 in
16:24 24.8 °F 14.0 °F 1019.9 in SW 3.7 mph 3.7 mph 51 % 0.0 in
16:29 24.5 °F 13.7 °F 1019.9 in ESE 7.4 mph 7.4 mph 51 % 0.0 in
16:34 23.8 °F 13.1 °F 1019.9 in ESE 12.2 mph 12.2 mph 51 % 0.0 in
16:39 23.5 °F 13.1 °F 1019.9 in ESE 9.3 mph 9.3 mph 52 % 0.0 in
16:44 23.3 °F 13.4 °F 1019.9 in East 9.3 mph 9.3 mph 54 % 0.0 in
16:49 23.1 °F 13.8 °F 1019.9 in East 16.1 mph 16.1 mph 56 % 0.0 in
16:54 22.8 °F 14.1 °F 1019.9 in East 14.8 mph 14.8 mph 58 % 0.0 in
16:59 22.8 °F 14.4 °F 1019.9 in ESE 13.0 mph 13.0 mph 59 % 0.0 in
17:04 22.6 °F 14.4 °F 1019.9 in ESE 11.1 mph 11.1 mph 60 % 0.0 in
17:09 22.5 °F 14.3 °F 1019.9 in ESE 9.3 mph 9.3 mph 60 % 0.0 in
17:14 22.5 °F 14.6 °F 1019.9 in ESE 9.3 mph 9.3 mph 61 % 0.0 in
17:19 22.4 °F 14.5 °F 1019.9 in ESE 11.1 mph 11.1 mph 61 % 0.0 in
17:24 22.4 °F 14.8 °F 1019.9 in ENE 9.3 mph 9.3 mph 62 % 0.0 in
17:34 22.4 °F 15.0 °F 1019.9 in ESE 9.3 mph 9.3 mph 63 % 0.0 in
17:39 22.4 °F 15.0 °F 1019.9 in SE 11.1 mph 11.1 mph 63 % 0.0 in
17:44 22.3 °F 14.9 °F 1019.9 in ENE 9.3 mph 9.3 mph 63 % 0.0 in
17:49 22.3 °F 14.9 °F 1019.9 in ENE 9.5 mph 9.5 mph 63 % 0.0 in
17:54 22.1 °F 14.9 °F 1019.9 in East 7.4 mph 7.4 mph 64 % 0.0 in
17:59 22.1 °F 14.9 °F 1019.9 in ESE 5.8 mph 5.8 mph 64 % 0.0 in
18:04 22.1 °F 14.9 °F 1019.9 in ENE 5.6 mph 5.8 mph 64 % 0.0 in
18:09 22.0 °F 14.9 °F 1019.9 in ESE 14.8 mph 14.8 mph 64 % 0.0 in
18:14 21.9 °F 15.3 °F 1019.9 in ENE 9.3 mph 9.3 mph 66 % 0.0 in
18:19 21.9 °F 15.3 °F 1019.9 in East 5.6 mph 5.8 mph 66 % 0.0 in
18:24 21.9 °F 15.3 °F 1019.9 in ESE 7.4 mph 7.4 mph 66 % 0.0 in
18:29 21.9 °F 15.3 °F 1018.8 in SW 2.3 mph   66 % 0.0 in
18:39 22.1 °F 14.9 °F 1018.8 in SSW 1.9 mph   64 % 0.0 in
18:44 22.1 °F 14.9 °F 1019.9 in WSW 7.4 mph 7.4 mph 64 % 0.0 in
18:45 22.1 °F 14.9 °F 1019.9 in WSW 7.4 mph 7.4 mph 64 % 0.0 in
18:50 22.1 °F 14.9 °F 1019.9 in SW 5.6 mph 6.9 mph 64 % 0.0 in
18:55 22.0 °F 14.9 °F 1019.9 in SW 6.1 mph 6.9 mph 64 % 0.0 in
19:00 21.8 °F 14.9 °F 1019.9 in SW 9.5 mph 9.5 mph 65 % 0.0 in
19:05 21.7 °F 15.1 °F 1019.9 in SW 7.6 mph 7.6 mph 66 % 0.0 in
19:15 21.5 °F 14.9 °F 1019.9 in SW 7.9 mph 7.9 mph 66 % 0.0 in
19:20 21.3 °F 14.7 °F 1019.9 in SW 10.3 mph 10.3 mph 66 % 0.0 in
19:25 21.2 °F 14.6 °F 1019.9 in SSW 4.2 mph 4.2 mph 66 % 0.0 in
19:30 21.0 °F 14.6 °F 1019.9 in SSW 9.3 mph 9.3 mph 67 % 0.0 in
19:35 20.9 °F 14.6 °F 1019.9 in SW 3.7 mph 3.7 mph 67 % 0.0 in
19:40 20.8 °F 14.4 °F 1019.9 in SW 5.6 mph 5.6 mph 67 % 0.0 in
19:45 20.6 °F 14.5 °F 1019.9 in SSW 5.6 mph 5.6 mph 68 % 0.0 in
19:50 20.6 °F 14.5 °F 1019.9 in SW 3.7 mph   68 % 0.0 in
19:55 20.4 °F 14.5 °F 1019.9 in WSW 7.4 mph 7.4 mph 69 % 0.0 in
20:00 20.3 °F 14.4 °F 1020.9 in SW 3.5 mph 3.5 mph 69 % 0.0 in
20:05 20.2 °F 14.3 °F 1020.9 in SW 3.7 mph 3.7 mph 69 % 0.0 in
20:10 20.1 °F 14.4 °F 1020.9 in SW 3.9 mph 3.9 mph 70 % 0.0 in
20:15 20.0 °F 14.3 °F 1020.9 in SW 3.7 mph 3.7 mph 70 % 0.0 in
20:20 20.0 °F 14.3 °F 1020.9 in West 3.7 mph 3.7 mph 70 % 0.0 in
20:25 19.9 °F 14.7 °F 1020.9 in SW 3.7 mph 3.7 mph 72 % 0.0 in
20:30 17.0 °F 14.7 °F 1021.9 in Calm     86 % 0.0 in
20:35 19.8 °F 14.6 °F 1020.9 in WSW 1.9 mph   72 % 0.0 in
20:40 19.7 °F 14.7 °F 1020.9 in SW 3.7 mph   73 % 0.0 in
20:45 19.6 °F 14.6 °F 1021.9 in WSW 3.7 mph 3.7 mph 73 % 0.0 in
20:50 19.6 °F 14.6 °F 1021.9 in West 3.7 mph 3.7 mph 73 % 0.0 in
20:55 19.5 °F 14.7 °F 1021.9 in Calm     74 % 0.0 in
21:00 19.4 °F 14.7 °F 1021.9 in SW 1.4 mph   74 % 0.0 in
21:05 19.4 °F 14.7 °F 1021.9 in SW 1.9 mph   74 % 0.0 in
21:10 19.3 °F 14.8 °F 1021.9 in Calm     75 % 0.0 in
21:15 19.2 °F 14.7 °F 1021.9 in Calm     75 % 0.0 in
21:20 19.1 °F 14.6 °F 1021.9 in Calm     75 % 0.0 in
21:25 19.1 °F 14.6 °F 1021.9 in Calm     75 % 0.0 in
21:30 19.0 °F 14.7 °F 1021.9 in Calm     76 % 0.0 in
21:35 19.0 °F 14.7 °F 1021.9 in Calm     76 % 0.0 in
21:40 18.9 °F 14.6 °F 1021.9 in Calm   1.6 mph 76 % 0.0 in
21:45 18.8 °F 14.7 °F 1021.9 in Calm     77 % 0.0 in
21:50 18.7 °F 14.6 °F 1021.9 in Calm     77 % 0.0 in
21:55 18.7 °F 14.6 °F 1021.9 in Calm     77 % 0.0 in
22:00 18.6 °F 14.7 °F 1021.9 in Calm     78 % 0.0 in
22:05 18.6 °F 14.7 °F 1021.9 in Calm     78 % 0.0 in
22:10 18.6 °F 14.7 °F 1021.9 in Calm     78 % 0.0 in
22:15 18.5 °F 14.6 °F 1020.9 in Calm     78 % 0.0 in
22:20 18.5 °F 14.8 °F 1020.9 in Calm     79 % 0.0 in
22:25 18.5 °F 14.8 °F 1020.9 in Calm     79 % 0.0 in
22:30 18.4 °F 14.7 °F 1021.9 in Calm     79 % 0.0 in
22:35 18.4 °F 14.7 °F 1021.9 in Calm     79 % 0.0 in
22:40 18.3 °F 14.6 °F 1021.9 in Calm     79 % 0.0 in
22:45 18.3 °F 14.6 °F 1021.9 in Calm     79 % 0.0 in
22:50 18.2 °F 14.7 °F 1021.9 in Calm     80 % 0.0 in
23:00 18.2 °F 14.7 °F 1021.9 in Calm     80 % 0.0 in
23:05 18.2 °F 14.7 °F 1021.9 in Calm     80 % 0.0 in
23:10 18.1 °F 14.6 °F 1021.9 in Calm   3.2 mph 80 % 0.0 in
23:15 18.2 °F 14.7 °F 1021.9 in Calm   3.2 mph 80 % 0.0 in
23:20 18.1 °F 14.8 °F 1021.9 in Calm     81 % 0.0 in
23:25 18.1 °F 14.8 °F 1021.9 in West 1.9 mph   81 % 0.0 in
23:30 18.1 °F 14.8 °F 1021.9 in West 1.9 mph   81 % 0.0 in
23:35 18.1 °F 14.8 °F 1021.9 in Calm     81 % 0.0 in
23:40 18.1 °F 15.0 °F 1021.9 in Calm     82 % 0.0 in
23:45 18.0 °F 14.9 °F 1021.9 in Calm     82 % 0.0 in
23:47 18.0 °F 14.9 °F 1021.9 in Calm     82 % 0.0 in
23:50 15.0 °F 13.0 °F 1021.9 in Calm   1.6 mph 88 % 0.0 in
23:52 17.8 °F 14.7 °F 1021.9 in Calm     82 % 0.0 in
23:57 17.8 °F 14.7 °F 1021.9 in Calm     82 % 0.0 in
Meteo Sesrovires
Elogis d' Weather Underground - 1.75 mb

Guio original per  Jim McMurry - jmcmurry@mwt.net Adaptat per a la plantilla per  Wim van der Kuil - Leuven-Template.eu

Trobareu la nostra informacio del temps tambe a:

Weather Underground

AWEKAS